<?xml version="1.0" encoding="UTF-8" standalone="no" ?><gpx xmlns="http://www.topografix.com/GPX/1/1" xmlns:gpxx="http://www.garmin.com/xmlschemas/GpxExtensions/v3" xmlns:gpxtrkx="http://www.garmin.com/xmlschemas/TrackStatsExtension/v1" xmlns:wptx1="http://www.garmin.com/xmlschemas/WaypointExtension/v1" xmlns:gpxtpx="http://www.garmin.com/xmlschemas/TrackPointExtension/v1" creator="Oregon 700" version="1.1" xmlns:xsi="http://www.w3.org/2001/XMLSchema-instance" xsi:schemaLocation="http://www.topografix.com/GPX/1/1 http://www.topografix.com/GPX/1/1/gpx.xsd http://www.garmin.com/xmlschemas/GpxExtensions/v3 http://www8.garmin.com/xmlschemas/GpxExtensionsv3.xsd http://www.garmin.com/xmlschemas/TrackStatsExtension/v1 http://www8.garmin.com/xmlschemas/TrackStatsExtension.xsd http://www.garmin.com/xmlschemas/WaypointExtension/v1 http://www8.garmin.com/xmlschemas/WaypointExtensionv1.xsd http://www.garmin.com/xmlschemas/TrackPointExtension/v1 http://www.garmin.com/xmlschemas/TrackPointExtensionv1.xsd"><metadata><link href="http://www.garmin.com"><text>Garmin International</text></link><time>2023-10-25T16:28:57Z</time></metadata><trk><name>Current Track: 25 OCT 2023 09:57</name><extensions><gpxx:TrackExtension><gpxx:DisplayColor>Cyan</gpxx:DisplayColor></gpxx:TrackExtension><gpxtrkx:TrackStatsExtension><gpxtrkx:Distance>4165.000</gpxtrkx:Distance><gpxtrkx:TimerTime>6942</gpxtrkx:TimerTime><gpxtrkx:TotalElapsedTime>27110</gpxtrkx:TotalElapsedTime><gpxtrkx:MovingTime>5935</gpxtrkx:MovingTime><gpxtrkx:StoppedTime>1008</gpxtrkx:StoppedTime><gpxtrkx:MovingSpeed>0.702</gpxtrkx:MovingSpeed><gpxtrkx:MaxSpeed>1.347</gpxtrkx:MaxSpeed><gpxtrkx:MaxElevation>91.538</gpxtrkx:MaxElevation><gpxtrkx:MinElevation>74.857</gpxtrkx:MinElevation><gpxtrkx:Ascent>29.000</gpxtrkx:Ascent><gpxtrkx:Descent>30.915</gpxtrkx:Descent><gpxtrkx:AvgAscentRate>0.026</gpxtrkx:AvgAscentRate><gpxtrkx:MaxAscentRate>0.037</gpxtrkx:MaxAscentRate><gpxtrkx:AvgDescentRate>0.015</gpxtrkx:AvgDescentRate><gpxtrkx:MaxDescentRate>-0.028</gpxtrkx:MaxDescentRate><gpxtrkx:Calories>171</gpxtrkx:Calories></gpxtrkx:TrackStatsExtension></extensions><trkseg><trkpt lat="52.0697171520" lon="-2.1147956606"><ele>83.09</ele><time>2023-10-25T08:57:07Z</time></trkpt><trkpt lat="52.0697234385" lon="-2.1148016118"><ele>84.61</ele><time>2023-10-25T08:57:13Z</time></trkpt><trkpt lat="52.0697366819" lon="-2.1147746220"><ele>85.52</ele><time>2023-10-25T08:57:23Z</time></trkpt><trkpt lat="52.0697545353" lon="-2.1147438604"><ele>84.01</ele><time>2023-10-25T08:57:32Z</time></trkpt><trkpt lat="52.0697626658" lon="-2.1147525776"><ele>87.02</ele><time>2023-10-25T08:57:40Z</time></trkpt><trkpt lat="52.0697618276" lon="-2.1147527453"><ele>87.72</ele><time>2023-10-25T08:57:42Z</time></trkpt><trkpt lat="52.0697498415" lon="-2.1147317067"><ele>85.71</ele><time>2023-10-25T08:57:46Z</time></trkpt><trkpt lat="52.0697368495" lon="-2.1147158649"><ele>87.01</ele><time>2023-10-25T08:57:50Z</time></trkpt><trkpt lat="52.0697833691" lon="-2.1146912221"><ele>84.17</ele><time>2023-10-25T08:57:58Z</time></trkpt><trkpt lat="52.0698426291" lon="-2.1146908868"><ele>86.99</ele><time>2023-10-25T08:58:05Z</time></trkpt><trkpt lat="52.0699185692" lon="-2.1147685032"><ele>84.61</ele><time>2023-10-25T08:58:13Z</time></trkpt><trkpt lat="52.0701300446" lon="-2.1149080619"><ele>86.83</ele><time>2023-10-25T08:58:32Z</time></trkpt><trkpt lat="52.0702243410" lon="-2.1149881929"><ele>85.79</ele><time>2023-10-25T08:58:40Z</time></trkpt><trkpt lat="52.0702670049" lon="-2.1150498837"><ele>86.10</ele><time>2023-10-25T08:58:53Z</time></trkpt><trkpt lat="52.0703580324" lon="-2.1150249057"><ele>85.87</ele><time>2023-10-25T08:59:09Z</time></trkpt><trkpt lat="52.0703737065" lon="-2.1150335390"><ele>86.09</ele><time>2023-10-25T08:59:24Z</time></trkpt><trkpt lat="52.0704602078" lon="-2.1150989179"><ele>85.85</ele><time>2023-10-25T08:59:38Z</time></trkpt><trkpt lat="52.0705477148" lon="-2.1152104810"><ele>85.83</ele><time>2023-10-25T08:59:50Z</time></trkpt><trkpt lat="52.0707255788" lon="-2.1151747741"><ele>86.08</ele><time>2023-10-25T09:00:05Z</time></trkpt><trkpt lat="52.0708768722" lon="-2.1152383927"><ele>86.13</ele><time>2023-10-25T09:00:23Z</time></trkpt><trkpt lat="52.0709088910" lon="-2.1152731776"><ele>86.15</ele><time>2023-10-25T09:00:26Z</time></trkpt><trkpt lat="52.0710749365" lon="-2.1153492853"><ele>86.37</ele><time>2023-10-25T09:00:46Z</time></trkpt><trkpt lat="52.0713148266" lon="-2.1154769417"><ele>86.23</ele><time>2023-10-25T09:01:08Z</time></trkpt><trkpt lat="52.0714253001" lon="-2.1155119780"><ele>86.26</ele><time>2023-10-25T09:01:21Z</time></trkpt><trkpt lat="52.0715487655" lon="-2.1156010777"><ele>86.57</ele><time>2023-10-25T09:01:43Z</time></trkpt><trkpt lat="52.0715634339" lon="-2.1156130638"><ele>86.57</ele><time>2023-10-25T09:02:01Z</time></trkpt><trkpt lat="52.0715911780" lon="-2.1156085376"><ele>86.57</ele><time>2023-10-25T09:02:23Z</time></trkpt><trkpt lat="52.0717318263" lon="-2.1157004870"><ele>86.57</ele><time>2023-10-25T09:02:44Z</time></trkpt><trkpt lat="52.0718099456" lon="-2.1158137266"><ele>87.48</ele><time>2023-10-25T09:03:04Z</time></trkpt><trkpt lat="52.0717926789" lon="-2.1159596555"><ele>87.62</ele><time>2023-10-25T09:03:19Z</time></trkpt><trkpt lat="52.0717366878" lon="-2.1162727196"><ele>87.68</ele><time>2023-10-25T09:03:41Z</time></trkpt><trkpt lat="52.0716853067" lon="-2.1163666807"><ele>88.19</ele><time>2023-10-25T09:04:04Z</time></trkpt><trkpt lat="52.0716563892" lon="-2.1165272780"><ele>88.89</ele><time>2023-10-25T09:04:26Z</time></trkpt><trkpt lat="52.0716390386" lon="-2.1167943254"><ele>88.99</ele><time>2023-10-25T09:04:44Z</time></trkpt><trkpt lat="52.0716228615" lon="-2.1169749554"><ele>89.93</ele><time>2023-10-25T09:05:02Z</time></trkpt><trkpt lat="52.0715884957" lon="-2.1173242293"><ele>88.71</ele><time>2023-10-25T09:05:26Z</time></trkpt><trkpt lat="52.0715615060" lon="-2.1174781211"><ele>86.36</ele><time>2023-10-25T09:05:40Z</time></trkpt><trkpt lat="52.0715625957" lon="-2.1175418235"><ele>88.38</ele><time>2023-10-25T09:05:45Z</time></trkpt><trkpt lat="52.0715462510" lon="-2.1177278180"><ele>88.49</ele><time>2023-10-25T09:06:03Z</time></trkpt><trkpt lat="52.0715229493" lon="-2.1178933606"><ele>87.36</ele><time>2023-10-25T09:06:17Z</time></trkpt><trkpt lat="52.0714808721" lon="-2.1181378607"><ele>84.98</ele><time>2023-10-25T09:06:39Z</time></trkpt><trkpt lat="52.0714315865" lon="-2.1182425506"><ele>86.60</ele><time>2023-10-25T09:07:00Z</time></trkpt><trkpt lat="52.0713961311" lon="-2.1183521859"><ele>85.40</ele><time>2023-10-25T09:07:20Z</time></trkpt><trkpt lat="52.0713522937" lon="-2.1183873899"><ele>84.73</ele><time>2023-10-25T09:07:35Z</time></trkpt><trkpt lat="52.0713355299" lon="-2.1184538584"><ele>85.40</ele><time>2023-10-25T09:07:42Z</time></trkpt><trkpt lat="52.0712227095" lon="-2.1184568759"><ele>85.14</ele><time>2023-10-25T09:08:04Z</time></trkpt><trkpt lat="52.0711323526" lon="-2.1184194088"><ele>84.35</ele><time>2023-10-25T09:08:23Z</time></trkpt><trkpt lat="52.0711408183" lon="-2.1183833666"><ele>84.57</ele><time>2023-10-25T09:08:32Z</time></trkpt><trkpt lat="52.0710563287" lon="-2.1182903275"><ele>84.29</ele><time>2023-10-25T09:08:53Z</time></trkpt><trkpt lat="52.0709072985" lon="-2.1182130463"><ele>83.88</ele><time>2023-10-25T09:09:12Z</time></trkpt><trkpt lat="52.0708456915" lon="-2.1181720588"><ele>83.84</ele><time>2023-10-25T09:09:35Z</time></trkpt><trkpt lat="52.0707027800" lon="-2.1181594022"><ele>83.78</ele><time>2023-10-25T09:09:58Z</time></trkpt><trkpt lat="52.0705477148" lon="-2.1179814544"><ele>83.48</ele><time>2023-10-25T09:10:23Z</time></trkpt><trkpt lat="52.0703961700" lon="-2.1178301610"><ele>82.25</ele><time>2023-10-25T09:10:46Z</time></trkpt><trkpt lat="52.0703566074" lon="-2.1177329309"><ele>83.64</ele><time>2023-10-25T09:11:03Z</time></trkpt><trkpt lat="52.0702797454" lon="-2.1175819729"><ele>82.59</ele><time>2023-10-25T09:11:21Z</time></trkpt><trkpt lat="52.0701967645" lon="-2.1174635366"><ele>83.63</ele><time>2023-10-25T09:11:34Z</time></trkpt><trkpt lat="52.0701347385" lon="-2.1174087189"><ele>83.00</ele><time>2023-10-25T09:11:48Z</time></trkpt><trkpt lat="52.0700677671" lon="-2.1173259057"><ele>82.57</ele><time>2023-10-25T09:12:00Z</time></trkpt><trkpt lat="52.0700313896" lon="-2.1172433440"><ele>82.49</ele><time>2023-10-25T09:12:19Z</time></trkpt><trkpt lat="52.0699815173" lon="-2.1172144264"><ele>83.09</ele><time>2023-10-25T09:12:36Z</time></trkpt><trkpt lat="52.0699702855" lon="-2.1171679068"><ele>83.15</ele><time>2023-10-25T09:12:57Z</time></trkpt><trkpt lat="52.0698597282" lon="-2.1170668211"><ele>82.19</ele><time>2023-10-25T09:13:17Z</time></trkpt><trkpt lat="52.0697710477" lon="-2.1169815771"><ele>82.16</ele><time>2023-10-25T09:13:40Z</time></trkpt><trkpt lat="52.0696526952" lon="-2.1169301122"><ele>81.35</ele><time>2023-10-25T09:14:02Z</time></trkpt><trkpt lat="52.0695509389" lon="-2.1168561839"><ele>82.29</ele><time>2023-10-25T09:14:23Z</time></trkpt><trkpt lat="52.0694428962" lon="-2.1167532541"><ele>82.29</ele><time>2023-10-25T09:14:46Z</time></trkpt><trkpt lat="52.0692786109" lon="-2.1167007834"><ele>82.29</ele><time>2023-10-25T09:15:05Z</time></trkpt><trkpt lat="52.0691580791" lon="-2.1166642383"><ele>82.29</ele><time>2023-10-25T09:15:29Z</time></trkpt><trkpt lat="52.0690113120" lon="-2.1167587861"><ele>82.29</ele><time>2023-10-25T09:15:51Z</time></trkpt><trkpt lat="52.0688706636" lon="-2.1169818286"><ele>82.29</ele><time>2023-10-25T09:16:16Z</time></trkpt><trkpt lat="52.0687795524" lon="-2.1171785519"><ele>82.29</ele><time>2023-10-25T09:16:40Z</time></trkpt><trkpt lat="52.0686816517" lon="-2.1174761932"><ele>82.29</ele><time>2023-10-25T09:17:03Z</time></trkpt><trkpt lat="52.0685881935" lon="-2.1175399795"><ele>82.29</ele><time>2023-10-25T09:17:27Z</time></trkpt><trkpt lat="52.0684318710" lon="-2.1176811308"><ele>82.29</ele><time>2023-10-25T09:17:47Z</time></trkpt><trkpt lat="52.0683456212" lon="-2.1177645307"><ele>82.29</ele><time>2023-10-25T09:18:05Z</time></trkpt><trkpt lat="52.0682436135" lon="-2.1178431530"><ele>82.29</ele><time>2023-10-25T09:18:22Z</time></trkpt><trkpt lat="52.0682190545" lon="-2.1179531235"><ele>82.29</ele><time>2023-10-25T09:18:48Z</time></trkpt><trkpt lat="52.0679969341" lon="-2.1180859767"><ele>82.16</ele><time>2023-10-25T09:19:06Z</time></trkpt><trkpt lat="52.0677857101" lon="-2.1182412934"><ele>81.64</ele><time>2023-10-25T09:19:31Z</time></trkpt><trkpt lat="52.0676712971" lon="-2.1182908304"><ele>82.33</ele><time>2023-10-25T09:19:51Z</time></trkpt><trkpt lat="52.0676331595" lon="-2.1183558740"><ele>82.33</ele><time>2023-10-25T09:20:10Z</time></trkpt><trkpt lat="52.0674948581" lon="-2.1185799222"><ele>82.33</ele><time>2023-10-25T09:20:33Z</time></trkpt><trkpt lat="52.0673834626" lon="-2.1187615581"><ele>82.33</ele><time>2023-10-25T09:20:56Z</time></trkpt><trkpt lat="52.0673472527" lon="-2.1187950019"><ele>82.33</ele><time>2023-10-25T09:21:18Z</time></trkpt><trkpt lat="52.0673303213" lon="-2.1188303735"><ele>82.33</ele><time>2023-10-25T09:21:43Z</time></trkpt><trkpt lat="52.0673142280" lon="-2.1188514121"><ele>82.33</ele><time>2023-10-25T09:22:03Z</time></trkpt><trkpt lat="52.0672445744" lon="-2.1188865323"><ele>82.33</ele><time>2023-10-25T09:22:26Z</time></trkpt><trkpt lat="52.0671857335" lon="-2.1190146077"><ele>82.33</ele><time>2023-10-25T09:22:45Z</time></trkpt><trkpt lat="52.0670629386" lon="-2.1191943996"><ele>82.33</ele><time>2023-10-25T09:23:02Z</time></trkpt><trkpt lat="52.0668720827" lon="-2.1195974015"><ele>82.33</ele><time>2023-10-25T09:23:29Z</time></trkpt><trkpt lat="52.0667943824" lon="-2.1197919454"><ele>82.33</ele><time>2023-10-25T09:23:48Z</time></trkpt><trkpt lat="52.0667284168" lon="-2.1200134791"><ele>82.33</ele><time>2023-10-25T09:24:09Z</time></trkpt><trkpt lat="52.0665953960" lon="-2.1202212665"><ele>82.33</ele><time>2023-10-25T09:24:31Z</time></trkpt><trkpt lat="52.0665503852" lon="-2.1203592326"><ele>82.33</ele><time>2023-10-25T09:24:53Z</time></trkpt><trkpt lat="52.0664501376" lon="-2.1204295568"><ele>82.33</ele><time>2023-10-25T09:25:15Z</time></trkpt><trkpt lat="52.0662790630" lon="-2.1204927564"><ele>82.33</ele><time>2023-10-25T09:25:39Z</time></trkpt><trkpt lat="52.0662487205" lon="-2.1205448918"><ele>78.08</ele><time>2023-10-25T09:25:57Z</time></trkpt><trkpt lat="52.0662462059" lon="-2.1205546986"><ele>78.08</ele><time>2023-10-25T09:25:58Z</time></trkpt><trkpt lat="52.0662032906" lon="-2.1206250228"><ele>78.25</ele><time>2023-10-25T09:26:21Z</time></trkpt><trkpt lat="52.0661234111" lon="-2.1207261086"><ele>77.66</ele><time>2023-10-25T09:26:43Z</time></trkpt><trkpt lat="52.0660407655" lon="-2.1208194830"><ele>76.96</ele><time>2023-10-25T09:27:07Z</time></trkpt><trkpt lat="52.0659865346" lon="-2.1209478937"><ele>75.90</ele><time>2023-10-25T09:27:32Z</time></trkpt><trkpt lat="52.0659680944" lon="-2.1210716944"><ele>75.35</ele><time>2023-10-25T09:27:52Z</time></trkpt><trkpt lat="52.0659261849" lon="-2.1211495623"><ele>75.31</ele><time>2023-10-25T09:28:13Z</time></trkpt><trkpt lat="52.0658380911" lon="-2.1214119159"><ele>75.11</ele><time>2023-10-25T09:28:36Z</time></trkpt><trkpt lat="52.0657721255" lon="-2.1216558293"><ele>74.93</ele><time>2023-10-25T09:29:03Z</time></trkpt><trkpt lat="52.0657376759" lon="-2.1218009200"><ele>75.23</ele><time>2023-10-25T09:29:25Z</time></trkpt><trkpt lat="52.0657028072" lon="-2.1218830626"><ele>75.02</ele><time>2023-10-25T09:29:45Z</time></trkpt><trkpt lat="52.0657259412" lon="-2.1217471920"><ele>75.14</ele><time>2023-10-25T09:30:08Z</time></trkpt><trkpt lat="52.0657849498" lon="-2.1215725970"><ele>75.14</ele><time>2023-10-25T09:30:27Z</time></trkpt><trkpt lat="52.0657815132" lon="-2.1215187851"><ele>75.14</ele><time>2023-10-25T09:30:53Z</time></trkpt><trkpt lat="52.0658214111" lon="-2.1213928051"><ele>75.14</ele><time>2023-10-25T09:31:11Z</time></trkpt><trkpt lat="52.0659141988" lon="-2.1211691760"><ele>75.14</ele><time>2023-10-25T09:31:33Z</time></trkpt><trkpt lat="52.0660584513" lon="-2.1209457144"><ele>75.14</ele><time>2023-10-25T09:31:54Z</time></trkpt><trkpt lat="52.0660841838" lon="-2.1208938304"><ele>78.54</ele><time>2023-10-25T09:32:03Z</time></trkpt><trkpt lat="52.0660861116" lon="-2.1208878793"><ele>78.49</ele><time>2023-10-25T09:32:04Z</time></trkpt><trkpt lat="52.0662488043" lon="-2.1206224244"><ele>79.59</ele><time>2023-10-25T09:32:24Z</time></trkpt><trkpt lat="52.0662914682" lon="-2.1205581352"><ele>80.36</ele><time>2023-10-25T09:32:43Z</time></trkpt><trkpt lat="52.0663491357" lon="-2.1204985399"><ele>80.29</ele><time>2023-10-25T09:33:08Z</time></trkpt><trkpt lat="52.0663931407" lon="-2.1204784233"><ele>80.44</ele><time>2023-10-25T09:33:27Z</time></trkpt><trkpt lat="52.0665295143" lon="-2.1203959454"><ele>80.95</ele><time>2023-10-25T09:33:48Z</time></trkpt><trkpt lat="52.0665741898" lon="-2.1203169879"><ele>81.38</ele><time>2023-10-25T09:34:10Z</time></trkpt><trkpt lat="52.0666517224" lon="-2.1201043390"><ele>81.25</ele><time>2023-10-25T09:34:31Z</time></trkpt><trkpt lat="52.0667416602" lon="-2.1198737528"><ele>81.16</ele><time>2023-10-25T09:34:58Z</time></trkpt><trkpt lat="52.0667448454" lon="-2.1198566537"><ele>81.46</ele><time>2023-10-25T09:35:23Z</time></trkpt><trkpt lat="52.0667469408" lon="-2.1198464278"><ele>81.46</ele><time>2023-10-25T09:35:48Z</time></trkpt><trkpt lat="52.0667977352" lon="-2.1197262313"><ele>81.46</ele><time>2023-10-25T09:36:12Z</time></trkpt><trkpt lat="52.0669057779" lon="-2.1195047814"><ele>81.46</ele><time>2023-10-25T09:36:33Z</time></trkpt><trkpt lat="52.0670302492" lon="-2.1194019355"><ele>81.46</ele><time>2023-10-25T09:36:51Z</time></trkpt><trkpt lat="52.0671761781" lon="-2.1191362292"><ele>81.46</ele><time>2023-10-25T09:37:12Z</time></trkpt><trkpt lat="52.0673551317" lon="-2.1187197324"><ele>81.46</ele><time>2023-10-25T09:37:37Z</time></trkpt><trkpt lat="52.0676614903" lon="-2.1184655931"><ele>81.46</ele><time>2023-10-25T09:38:01Z</time></trkpt><trkpt lat="52.0678508375" lon="-2.1183483303"><ele>81.46</ele><time>2023-10-25T09:38:20Z</time></trkpt><trkpt lat="52.0679023024" lon="-2.1182795987"><ele>83.18</ele><time>2023-10-25T09:38:26Z</time></trkpt><trkpt lat="52.0679647475" lon="-2.1181531996"><ele>83.64</ele><time>2023-10-25T09:38:42Z</time></trkpt><trkpt lat="52.0680540986" lon="-2.1181108709"><ele>84.19</ele><time>2023-10-25T09:39:01Z</time></trkpt><trkpt lat="52.0681541786" lon="-2.1179664508"><ele>83.85</ele><time>2023-10-25T09:39:16Z</time></trkpt><trkpt lat="52.0683195535" lon="-2.1178185102"><ele>84.13</ele><time>2023-10-25T09:39:37Z</time></trkpt><trkpt lat="52.0684753731" lon="-2.1176488604"><ele>84.05</ele><time>2023-10-25T09:39:59Z</time></trkpt><trkpt lat="52.0685435180" lon="-2.1177622676"><ele>84.08</ele><time>2023-10-25T09:40:21Z</time></trkpt><trkpt lat="52.0686535724" lon="-2.1180177480"><ele>84.08</ele><time>2023-10-25T09:40:44Z</time></trkpt><trkpt lat="52.0687261596" lon="-2.1181821171"><ele>83.64</ele><time>2023-10-25T09:41:08Z</time></trkpt><trkpt lat="52.0687514730" lon="-2.1184431296"><ele>83.24</ele><time>2023-10-25T09:41:33Z</time></trkpt><trkpt lat="52.0688668080" lon="-2.1185580455"><ele>83.13</ele><time>2023-10-25T09:41:54Z</time></trkpt><trkpt lat="52.0689168479" lon="-2.1185669303"><ele>83.14</ele><time>2023-10-25T09:42:16Z</time></trkpt><trkpt lat="52.0690320153" lon="-2.1186458878"><ele>82.94</ele><time>2023-10-25T09:42:39Z</time></trkpt><trkpt lat="52.0691139065" lon="-2.1187145356"><ele>82.81</ele><time>2023-10-25T09:42:58Z</time></trkpt><trkpt lat="52.0692602545" lon="-2.1188453771"><ele>82.72</ele><time>2023-10-25T09:43:19Z</time></trkpt><trkpt lat="52.0694555528" lon="-2.1189711895"><ele>82.72</ele><time>2023-10-25T09:43:45Z</time></trkpt><trkpt lat="52.0695612486" lon="-2.1189352311"><ele>82.72</ele><time>2023-10-25T09:44:12Z</time></trkpt><trkpt lat="52.0697288867" lon="-2.1189114265"><ele>82.72</ele><time>2023-10-25T09:44:35Z</time></trkpt><trkpt lat="52.0698124543" lon="-2.1189086605"><ele>82.72</ele><time>2023-10-25T09:44:49Z</time></trkpt><trkpt lat="52.0699478220" lon="-2.1189951617"><ele>82.72</ele><time>2023-10-25T09:45:13Z</time></trkpt><trkpt lat="52.0700819325" lon="-2.1190286893"><ele>82.64</ele><time>2023-10-25T09:45:38Z</time></trkpt><trkpt lat="52.0701652486" lon="-2.1191969141"><ele>82.10</ele><time>2023-10-25T09:45:57Z</time></trkpt><trkpt lat="52.0702320524" lon="-2.1194478683"><ele>82.26</ele><time>2023-10-25T09:46:18Z</time></trkpt><trkpt lat="52.0702857804" lon="-2.1197290812"><ele>82.61</ele><time>2023-10-25T09:46:40Z</time></trkpt><trkpt lat="52.0703034662" lon="-2.1199082863"><ele>82.41</ele><time>2023-10-25T09:47:00Z</time></trkpt><trkpt lat="52.0703307074" lon="-2.1201119665"><ele>82.81</ele><time>2023-10-25T09:47:22Z</time></trkpt><trkpt lat="52.0704611298" lon="-2.1202151477"><ele>82.33</ele><time>2023-10-25T09:47:42Z</time></trkpt><trkpt lat="52.0705269277" lon="-2.1202251222"><ele>81.98</ele><time>2023-10-25T09:48:02Z</time></trkpt><trkpt lat="52.0706919674" lon="-2.1202590689"><ele>81.83</ele><time>2023-10-25T09:48:24Z</time></trkpt><trkpt lat="52.0708109066" lon="-2.1202750783"><ele>81.72</ele><time>2023-10-25T09:48:44Z</time></trkpt><trkpt lat="52.0709202066" lon="-2.1203162335"><ele>82.10</ele><time>2023-10-25T09:49:03Z</time></trkpt><trkpt lat="52.0710836537" lon="-2.1204229351"><ele>82.10</ele><time>2023-10-25T09:49:24Z</time></trkpt><trkpt lat="52.0711745974" lon="-2.1204930078"><ele>82.10</ele><time>2023-10-25T09:49:45Z</time></trkpt><trkpt lat="52.0711696520" lon="-2.1207085066"><ele>82.10</ele><time>2023-10-25T09:50:06Z</time></trkpt><trkpt lat="52.0711816382" lon="-2.1208478976"><ele>81.61</ele><time>2023-10-25T09:50:26Z</time></trkpt><trkpt lat="52.0710896049" lon="-2.1208640747"><ele>81.33</ele><time>2023-10-25T09:50:48Z</time></trkpt><trkpt lat="52.0710337814" lon="-2.1209432837"><ele>81.41</ele><time>2023-10-25T09:51:10Z</time></trkpt><trkpt lat="52.0710023493" lon="-2.1210645698"><ele>81.55</ele><time>2023-10-25T09:51:35Z</time></trkpt><trkpt lat="52.0709717553" lon="-2.1211360674"><ele>81.55</ele><time>2023-10-25T09:52:00Z</time></trkpt><trkpt lat="52.0709891059" lon="-2.1211182140"><ele>81.55</ele><time>2023-10-25T09:52:23Z</time></trkpt><trkpt lat="52.0709710848" lon="-2.1211388335"><ele>81.55</ele><time>2023-10-25T09:52:47Z</time></trkpt><trkpt lat="52.0709636249" lon="-2.1211266797"><ele>81.55</ele><time>2023-10-25T09:53:09Z</time></trkpt><trkpt lat="52.0709737670" lon="-2.1211123466"><ele>81.55</ele><time>2023-10-25T09:53:34Z</time></trkpt><trkpt lat="52.0709695760" lon="-2.1211107541"><ele>81.55</ele><time>2023-10-25T09:53:55Z</time></trkpt><trkpt lat="52.0709438436" lon="-2.1211413480"><ele>81.55</ele><time>2023-10-25T09:54:20Z</time></trkpt><trkpt lat="52.0709579252" lon="-2.1211698465"><ele>81.55</ele><time>2023-10-25T09:54:45Z</time></trkpt><trkpt lat="52.0709469449" lon="-2.1211618837"><ele>81.55</ele><time>2023-10-25T09:55:05Z</time></trkpt><trkpt lat="52.0709586795" lon="-2.1211529151"><ele>81.55</ele><time>2023-10-25T09:55:27Z</time></trkpt><trkpt lat="52.0709678996" lon="-2.1211415995"><ele>81.55</ele><time>2023-10-25T09:55:51Z</time></trkpt><trkpt lat="52.0709991641" lon="-2.1211467963"><ele>81.55</ele><time>2023-10-25T09:56:16Z</time></trkpt><trkpt lat="52.0710015111" lon="-2.1211666614"><ele>81.55</ele><time>2023-10-25T09:56:39Z</time></trkpt><trkpt lat="52.0709958114" lon="-2.1212009434"><ele>81.55</ele><time>2023-10-25T09:57:01Z</time></trkpt><trkpt lat="52.0709878486" lon="-2.1211896278"><ele>81.55</ele><time>2023-10-25T09:57:24Z</time></trkpt><trkpt lat="52.0709691569" lon="-2.1211918071"><ele>81.55</ele><time>2023-10-25T09:57:47Z</time></trkpt><trkpt lat="52.0709527284" lon="-2.1211970877"><ele>81.55</ele><time>2023-10-25T09:58:13Z</time></trkpt><trkpt lat="52.0709751919" lon="-2.1211604588"><ele>81.55</ele><time>2023-10-25T09:58:38Z</time></trkpt><trkpt lat="52.0710086357" lon="-2.1211422700"><ele>81.55</ele><time>2023-10-25T09:59:03Z</time></trkpt><trkpt lat="52.0710226335" lon="-2.1211416833"><ele>81.55</ele><time>2023-10-25T09:59:28Z</time></trkpt><trkpt lat="52.0709847473" lon="-2.1211245842"><ele>81.55</ele><time>2023-10-25T09:59:52Z</time></trkpt><trkpt lat="52.0709950570" lon="-2.1211162861"><ele>81.55</ele><time>2023-10-25T10:00:19Z</time></trkpt><trkpt lat="52.0709867589" lon="-2.1211526636"><ele>81.55</ele><time>2023-10-25T10:00:44Z</time></trkpt><trkpt lat="52.0709628705" lon="-2.1211810783"><ele>81.55</ele><time>2023-10-25T10:01:08Z</time></trkpt><trkpt lat="52.0709613618" lon="-2.1212054696"><ele>81.55</ele><time>2023-10-25T10:01:30Z</time></trkpt><trkpt lat="52.0709611941" lon="-2.1211880352"><ele>81.55</ele><time>2023-10-25T10:01:57Z</time></trkpt><trkpt lat="52.0709539019" lon="-2.1211858559"><ele>81.55</ele><time>2023-10-25T10:02:22Z</time></trkpt><trkpt lat="52.0709329471" lon="-2.1211383305"><ele>81.55</ele><time>2023-10-25T10:02:46Z</time></trkpt><trkpt lat="52.0709161833" lon="-2.1211289428"><ele>81.55</ele><time>2023-10-25T10:03:14Z</time></trkpt><trkpt lat="52.0709470287" lon="-2.1211090777"><ele>81.55</ele><time>2023-10-25T10:03:40Z</time></trkpt><trkpt lat="52.0709870104" lon="-2.1210895479"><ele>81.55</ele><time>2023-10-25T10:04:19Z</time></trkpt><trkpt lat="52.0709881838" lon="-2.1210866980"><ele>81.55</ele><time>2023-10-25T10:04:55Z</time></trkpt><trkpt lat="52.0709631220" lon="-2.1211120114"><ele>81.55</ele><time>2023-10-25T10:05:31Z</time></trkpt><trkpt lat="52.0709581766" lon="-2.1211220697"><ele>81.55</ele><time>2023-10-25T10:05:58Z</time></trkpt><trkpt lat="52.0709679835" lon="-2.1211316250"><ele>81.55</ele><time>2023-10-25T10:06:25Z</time></trkpt><trkpt lat="52.0709839091" lon="-2.1211546753"><ele>81.55</ele><time>2023-10-25T10:06:54Z</time></trkpt><trkpt lat="52.0709761977" lon="-2.1211505681"><ele>81.55</ele><time>2023-10-25T10:07:47Z</time></trkpt><trkpt lat="52.0709832385" lon="-2.1211044677"><ele>81.55</ele><time>2023-10-25T10:08:22Z</time></trkpt><trkpt lat="52.0709932968" lon="-2.1210746281"><ele>81.55</ele><time>2023-10-25T10:09:06Z</time></trkpt><trkpt lat="52.0709939674" lon="-2.1211028751"><ele>81.55</ele><time>2023-10-25T10:10:00Z</time></trkpt><trkpt lat="52.0709992480" lon="-2.1211026236"><ele>81.55</ele><time>2023-10-25T10:10:23Z</time></trkpt><trkpt lat="52.0710155927" lon="-2.1210805792"><ele>81.55</ele><time>2023-10-25T10:10:50Z</time></trkpt><trkpt lat="52.0710085519" lon="-2.1210954990"><ele>81.55</ele><time>2023-10-25T10:11:16Z</time></trkpt><trkpt lat="52.0709897764" lon="-2.1211156994"><ele>81.55</ele><time>2023-10-25T10:11:42Z</time></trkpt><trkpt lat="52.0709855855" lon="-2.1211100835"><ele>81.55</ele><time>2023-10-25T10:12:01Z</time></trkpt><trkpt lat="52.0709697437" lon="-2.1210291144"><ele>81.55</ele><time>2023-10-25T10:12:27Z</time></trkpt><trkpt lat="52.0709746052" lon="-2.1210154518"><ele>81.55</ele><time>2023-10-25T10:12:56Z</time></trkpt><trkpt lat="52.0709925424" lon="-2.1210082434"><ele>81.55</ele><time>2023-10-25T10:13:23Z</time></trkpt><trkpt lat="52.0709826518" lon="-2.1209804993"><ele>81.55</ele><time>2023-10-25T10:13:46Z</time></trkpt><trkpt lat="52.0709914528" lon="-2.1209519170"><ele>81.55</ele><time>2023-10-25T10:14:13Z</time></trkpt><trkpt lat="52.0709983259" lon="-2.1209903061"><ele>81.55</ele><time>2023-10-25T10:14:41Z</time></trkpt><trkpt lat="52.0709709171" lon="-2.1209738776"><ele>81.55</ele><time>2023-10-25T10:15:04Z</time></trkpt><trkpt lat="52.0710448455" lon="-2.1209959220"><ele>81.55</ele><time>2023-10-25T10:15:29Z</time></trkpt><trkpt lat="52.0711520500" lon="-2.1209842712"><ele>81.55</ele><time>2023-10-25T10:15:51Z</time></trkpt><trkpt lat="52.0711860806" lon="-2.1211327147"><ele>81.55</ele><time>2023-10-25T10:16:16Z</time></trkpt><trkpt lat="52.0711433329" lon="-2.1212564316"><ele>81.55</ele><time>2023-10-25T10:16:38Z</time></trkpt><trkpt lat="52.0711494517" lon="-2.1213550866"><ele>78.45</ele><time>2023-10-25T10:16:54Z</time></trkpt><trkpt lat="52.0711486973" lon="-2.1213736106"><ele>78.45</ele><time>2023-10-25T10:16:55Z</time></trkpt><trkpt lat="52.0711492002" lon="-2.1215570904"><ele>78.16</ele><time>2023-10-25T10:17:16Z</time></trkpt><trkpt lat="52.0711804647" lon="-2.1215352137"><ele>78.48</ele><time>2023-10-25T10:17:37Z</time></trkpt><trkpt lat="52.0711600129" lon="-2.1214306913"><ele>79.10</ele><time>2023-10-25T10:17:56Z</time></trkpt><trkpt lat="52.0711580850" lon="-2.1213704254"><ele>79.79</ele><time>2023-10-25T10:18:17Z</time></trkpt><trkpt lat="52.0711776987" lon="-2.1210848540"><ele>81.09</ele><time>2023-10-25T10:18:38Z</time></trkpt><trkpt lat="52.0712252241" lon="-2.1208171360"><ele>82.30</ele><time>2023-10-25T10:19:02Z</time></trkpt><trkpt lat="52.0712151658" lon="-2.1208227519"><ele>82.06</ele><time>2023-10-25T10:19:24Z</time></trkpt><trkpt lat="52.0711944625" lon="-2.1206000447"><ele>82.52</ele><time>2023-10-25T10:19:42Z</time></trkpt><trkpt lat="52.0711901877" lon="-2.1205329895"><ele>82.36</ele><time>2023-10-25T10:19:59Z</time></trkpt><trkpt lat="52.0711851586" lon="-2.1203858033"><ele>82.36</ele><time>2023-10-25T10:20:30Z</time></trkpt><trkpt lat="52.0711429976" lon="-2.1200858988"><ele>82.36</ele><time>2023-10-25T10:20:52Z</time></trkpt><trkpt lat="52.0711571630" lon="-2.1198625211"><ele>82.36</ele><time>2023-10-25T10:21:15Z</time></trkpt><trkpt lat="52.0712223742" lon="-2.1196960565"><ele>82.36</ele><time>2023-10-25T10:21:39Z</time></trkpt><trkpt lat="52.0711937919" lon="-2.1195287537"><ele>82.36</ele><time>2023-10-25T10:22:01Z</time></trkpt><trkpt lat="52.0712231286" lon="-2.1193237323"><ele>82.36</ele><time>2023-10-25T10:22:21Z</time></trkpt><trkpt lat="52.0713116415" lon="-2.1190010291"><ele>82.36</ele><time>2023-10-25T10:22:45Z</time></trkpt><trkpt lat="52.0713232923" lon="-2.1187227499"><ele>82.36</ele><time>2023-10-25T10:23:05Z</time></trkpt><trkpt lat="52.0713299140" lon="-2.1184897330"><ele>84.91</ele><time>2023-10-25T10:23:18Z</time></trkpt><trkpt lat="52.0713031758" lon="-2.1182667743"><ele>84.82</ele><time>2023-10-25T10:23:37Z</time></trkpt><trkpt lat="52.0712367073" lon="-2.1183951013"><ele>84.50</ele><time>2023-10-25T10:23:59Z</time></trkpt><trkpt lat="52.0713044330" lon="-2.1184045728"><ele>84.89</ele><time>2023-10-25T10:24:14Z</time></trkpt><trkpt lat="52.0714421477" lon="-2.1181600727"><ele>85.38</ele><time>2023-10-25T10:24:34Z</time></trkpt><trkpt lat="52.0714965463" lon="-2.1180330031"><ele>85.38</ele><time>2023-10-25T10:24:56Z</time></trkpt><trkpt lat="52.0715143997" lon="-2.1177777741"><ele>85.38</ele><time>2023-10-25T10:25:18Z</time></trkpt><trkpt lat="52.0715458319" lon="-2.1175104752"><ele>85.38</ele><time>2023-10-25T10:25:41Z</time></trkpt><trkpt lat="52.0715724025" lon="-2.1173079684"><ele>85.38</ele><time>2023-10-25T10:26:05Z</time></trkpt><trkpt lat="52.0715817064" lon="-2.1170906257"><ele>89.07</ele><time>2023-10-25T10:26:24Z</time></trkpt><trkpt lat="52.0715858135" lon="-2.1170818247"><ele>89.00</ele><time>2023-10-25T10:26:25Z</time></trkpt><trkpt lat="52.0716113783" lon="-2.1168472152"><ele>88.38</ele><time>2023-10-25T10:26:43Z</time></trkpt><trkpt lat="52.0716902521" lon="-2.1164649166"><ele>87.26</ele><time>2023-10-25T10:27:06Z</time></trkpt><trkpt lat="52.0717500988" lon="-2.1162455622"><ele>86.94</ele><time>2023-10-25T10:27:28Z</time></trkpt><trkpt lat="52.0717940200" lon="-2.1160235256"><ele>87.12</ele><time>2023-10-25T10:27:51Z</time></trkpt><trkpt lat="52.0718208421" lon="-2.1158963721"><ele>87.03</ele><time>2023-10-25T10:28:18Z</time></trkpt><trkpt lat="52.0718758274" lon="-2.1157434024"><ele>86.93</ele><time>2023-10-25T10:28:37Z</time></trkpt><trkpt lat="52.0719393622" lon="-2.1157170832"><ele>86.93</ele><time>2023-10-25T10:28:58Z</time></trkpt><trkpt lat="52.0719399489" lon="-2.1155285742"><ele>86.93</ele><time>2023-10-25T10:29:17Z</time></trkpt><trkpt lat="52.0719701238" lon="-2.1154144965"><ele>86.93</ele><time>2023-10-25T10:29:37Z</time></trkpt><trkpt lat="52.0720236003" lon="-2.1152326092"><ele>86.93</ele><time>2023-10-25T10:29:56Z</time></trkpt><trkpt lat="52.0720660966" lon="-2.1148641407"><ele>86.93</ele><time>2023-10-25T10:30:20Z</time></trkpt><trkpt lat="52.0721065812" lon="-2.1147177089"><ele>86.93</ele><time>2023-10-25T10:30:41Z</time></trkpt><trkpt lat="52.0721296314" lon="-2.1143319737"><ele>86.93</ele><time>2023-10-25T10:31:06Z</time></trkpt><trkpt lat="52.0721746422" lon="-2.1141399443"><ele>86.93</ele><time>2023-10-25T10:31:27Z</time></trkpt><trkpt lat="52.0721906517" lon="-2.1140997950"><ele>86.93</ele><time>2023-10-25T10:31:46Z</time></trkpt><trkpt lat="52.0722429547" lon="-2.1138781775"><ele>86.93</ele><time>2023-10-25T10:32:08Z</time></trkpt><trkpt lat="52.0722464751" lon="-2.1137716435"><ele>86.93</ele><time>2023-10-25T10:32:28Z</time></trkpt><trkpt lat="52.0721684396" lon="-2.1135604195"><ele>86.93</ele><time>2023-10-25T10:32:51Z</time></trkpt><trkpt lat="52.0721050724" lon="-2.1134768520"><ele>86.93</ele><time>2023-10-25T10:33:14Z</time></trkpt><trkpt lat="52.0720382687" lon="-2.1134279016"><ele>86.93</ele><time>2023-10-25T10:33:35Z</time></trkpt><trkpt lat="52.0719470736" lon="-2.1133729164"><ele>86.93</ele><time>2023-10-25T10:33:56Z</time></trkpt><trkpt lat="52.0719097741" lon="-2.1132585872"><ele>88.52</ele><time>2023-10-25T10:34:18Z</time></trkpt><trkpt lat="52.0718194172" lon="-2.1132673882"><ele>88.48</ele><time>2023-10-25T10:34:41Z</time></trkpt><trkpt lat="52.0717298146" lon="-2.1131782886"><ele>88.75</ele><time>2023-10-25T10:34:56Z</time></trkpt><trkpt lat="52.0716486778" lon="-2.1130701620"><ele>88.88</ele><time>2023-10-25T10:35:17Z</time></trkpt><trkpt lat="52.0716376975" lon="-2.1130367182"><ele>88.70</ele><time>2023-10-25T10:35:38Z</time></trkpt><trkpt lat="52.0715594944" lon="-2.1130110696"><ele>88.56</ele><time>2023-10-25T10:36:01Z</time></trkpt><trkpt lat="52.0714999828" lon="-2.1129865944"><ele>88.66</ele><time>2023-10-25T10:36:32Z</time></trkpt><trkpt lat="52.0714207739" lon="-2.1128966566"><ele>88.66</ele><time>2023-10-25T10:36:54Z</time></trkpt><trkpt lat="52.0713854861" lon="-2.1128000971"><ele>88.44</ele><time>2023-10-25T10:37:10Z</time></trkpt><trkpt lat="52.0713455044" lon="-2.1127299406"><ele>88.17</ele><time>2023-10-25T10:37:25Z</time></trkpt><trkpt lat="52.0713116415" lon="-2.1127172001"><ele>88.37</ele><time>2023-10-25T10:37:43Z</time></trkpt><trkpt lat="52.0712215360" lon="-2.1126725245"><ele>88.05</ele><time>2023-10-25T10:38:01Z</time></trkpt><trkpt lat="52.0711424947" lon="-2.1126329619"><ele>88.15</ele><time>2023-10-25T10:38:18Z</time></trkpt><trkpt lat="52.0710019302" lon="-2.1125276852"><ele>88.09</ele><time>2023-10-25T10:38:40Z</time></trkpt><trkpt lat="52.0708964858" lon="-2.1125309542"><ele>87.51</ele><time>2023-10-25T10:38:59Z</time></trkpt><trkpt lat="52.0707237348" lon="-2.1126175392"><ele>87.82</ele><time>2023-10-25T10:39:20Z</time></trkpt><trkpt lat="52.0706317853" lon="-2.1125277691"><ele>87.56</ele><time>2023-10-25T10:39:38Z</time></trkpt><trkpt lat="52.0705266763" lon="-2.1124312934"><ele>87.63</ele><time>2023-10-25T10:40:01Z</time></trkpt><trkpt lat="52.0704563521" lon="-2.1124323830"><ele>87.63</ele><time>2023-10-25T10:40:23Z</time></trkpt><trkpt lat="52.0704646502" lon="-2.1123024635"><ele>87.63</ele><time>2023-10-25T10:40:46Z</time></trkpt><trkpt lat="52.0705038775" lon="-2.1120841987"><ele>87.63</ele><time>2023-10-25T10:41:09Z</time></trkpt><trkpt lat="52.0705243293" lon="-2.1117530297"><ele>87.63</ele><time>2023-10-25T10:41:32Z</time></trkpt><trkpt lat="52.0705762133" lon="-2.1115600783"><ele>87.63</ele><time>2023-10-25T10:41:55Z</time></trkpt><trkpt lat="52.0706423465" lon="-2.1114022471"><ele>87.63</ele><time>2023-10-25T10:42:17Z</time></trkpt><trkpt lat="52.0706658158" lon="-2.1112275682"><ele>87.63</ele><time>2023-10-25T10:42:38Z</time></trkpt><trkpt lat="52.0706803165" lon="-2.1111496165"><ele>90.60</ele><time>2023-10-25T10:42:48Z</time></trkpt><trkpt lat="52.0706985891" lon="-2.1109844092"><ele>91.08</ele><time>2023-10-25T10:43:06Z</time></trkpt><trkpt lat="52.0707120840" lon="-2.1108301822"><ele>91.10</ele><time>2023-10-25T10:43:28Z</time></trkpt><trkpt lat="52.0707444381" lon="-2.1106576826"><ele>91.35</ele><time>2023-10-25T10:43:49Z</time></trkpt><trkpt lat="52.0707397442" lon="-2.1106419247"><ele>91.26</ele><time>2023-10-25T10:44:13Z</time></trkpt><trkpt lat="52.0707531553" lon="-2.1106488816"><ele>91.13</ele><time>2023-10-25T10:44:37Z</time></trkpt><trkpt lat="52.0707596093" lon="-2.1106567606"><ele>91.53</ele><time>2023-10-25T10:44:59Z</time></trkpt><trkpt lat="52.0707519818" lon="-2.1107081417"><ele>91.23</ele><time>2023-10-25T10:45:18Z</time></trkpt><trkpt lat="52.0707186218" lon="-2.1108154301"><ele>91.13</ele><time>2023-10-25T10:45:42Z</time></trkpt><trkpt lat="52.0706865191" lon="-2.1109922882"><ele>90.48</ele><time>2023-10-25T10:46:04Z</time></trkpt><trkpt lat="52.0706826635" lon="-2.1110401489"><ele>90.60</ele><time>2023-10-25T10:46:09Z</time></trkpt><trkpt lat="52.0706286840" lon="-2.1114762593"><ele>89.84</ele><time>2023-10-25T10:46:31Z</time></trkpt><trkpt lat="52.0705633052" lon="-2.1117901616"><ele>89.05</ele><time>2023-10-25T10:46:54Z</time></trkpt><trkpt lat="52.0705652330" lon="-2.1119682770"><ele>88.56</ele><time>2023-10-25T10:47:13Z</time></trkpt><trkpt lat="52.0705251675" lon="-2.1121088415"><ele>88.09</ele><time>2023-10-25T10:47:33Z</time></trkpt><trkpt lat="52.0703816693" lon="-2.1122781560"><ele>87.61</ele><time>2023-10-25T10:47:54Z</time></trkpt><trkpt lat="52.0703136921" lon="-2.1123176347"><ele>87.38</ele><time>2023-10-25T10:48:16Z</time></trkpt><trkpt lat="52.0702126063" lon="-2.1124821715"><ele>87.06</ele><time>2023-10-25T10:48:44Z</time></trkpt><trkpt lat="52.0701290388" lon="-2.1128021087"><ele>86.48</ele><time>2023-10-25T10:49:05Z</time></trkpt><trkpt lat="52.0700568706" lon="-2.1129917074"><ele>86.15</ele><time>2023-10-25T10:49:27Z</time></trkpt><trkpt lat="52.0699835289" lon="-2.1133234631"><ele>85.88</ele><time>2023-10-25T10:49:52Z</time></trkpt><trkpt lat="52.0699391887" lon="-2.1134976391"><ele>85.59</ele><time>2023-10-25T10:50:14Z</time></trkpt><trkpt lat="52.0698637515" lon="-2.1137164906"><ele>84.91</ele><time>2023-10-25T10:50:39Z</time></trkpt><trkpt lat="52.0699160546" lon="-2.1138899960"><ele>84.40</ele><time>2023-10-25T10:51:00Z</time></trkpt><trkpt lat="52.0697772503" lon="-2.1140152216"><ele>83.92</ele><time>2023-10-25T10:51:14Z</time></trkpt><trkpt lat="52.0697532780" lon="-2.1141183190"><ele>83.85</ele><time>2023-10-25T10:51:21Z</time></trkpt><trkpt lat="52.0697686169" lon="-2.1142899804"><ele>83.83</ele><time>2023-10-25T10:51:29Z</time></trkpt><trkpt lat="52.0697669405" lon="-2.1143672615"><ele>83.87</ele><time>2023-10-25T10:51:32Z</time></trkpt><trkpt lat="52.0697564632" lon="-2.1145355701"><ele>83.67</ele><time>2023-10-25T10:51:43Z</time></trkpt><trkpt lat="52.0697468240" lon="-2.1146486420"><ele>83.92</ele><time>2023-10-25T10:51:52Z</time></trkpt><trkpt lat="52.0697368495" lon="-2.1147710178"><ele>83.94</ele><time>2023-10-25T10:52:17Z</time></trkpt><trkpt lat="52.0697732270" lon="-2.1147950739"><ele>82.96</ele><time>2023-10-25T10:52:40Z</time></trkpt><trkpt lat="52.0697691198" lon="-2.1147957444"><ele>83.88</ele><time>2023-10-25T10:52:51Z</time></trkpt></trkseg></trk></gpx>